Latest Coastal Weather Observations for Hervey Bay

IDQ60701

Issued at 5:02 am EST Monday 15 February 2016 (issued every 10 minutes, with the page automatically refreshed every 10 minutes)

About coastal observations | Map of coastal stations | Coastal observations for QLD | Marine services | Other Formats
Station Details ID: 040405 Name: HERVEY BAY AIRPORT Lat: -25.32 Lon: 152.88 Height: 12.98 m
Data from the previous 72 hours. | See also: Recent months at Hervey Bay
Date/Time
EST
Temp

°C
Wind Pressure Rain
since 9am
mm
Weather Cloud Vis
km
Sea
Height
m
Swell
Dir
 
Speed
knots
Gust
knots
hPa Trend Height
m
Period
s
Dir
15/05:00am 21.4 SSW 6 9 1007.4 - 0.4 - - 10 - - - -
15/04:30am 21.6 SSW 5 7 1007.1 - 0.4 - - 10 - - - -
15/04:00am 21.8 SSW 6 7 1007.0 - 0.4 - Partly cloudy 10 - - - -
15/03:30am 22.0 SSW 5 8 1007.0 - 0.4 - Partly cloudy 10 - - - -
15/03:00am 22.0 SW 5 7 1007.0 - 0.4 - Mostly cloudy 10 - - - -
15/02:30am 21.7 SW 5 6 1007.0 - 0.4 - Partly cloudy 10 - - - -
15/02:00am 21.9 SW 5 6 1007.2 - 0.4 - Partly cloudy 10 - - - -
15/01:58am 22.0 SW 5 6 1007.3 - 0.4 - Partly cloudy 10 - - - -
15/01:30am 22.3 SW 5 6 1007.4 - 0.4 - Partly cloudy 10 - - - -
15/01:22am 22.3 SW 5 6 1007.5 - 0.4 - Partly cloudy 10 - - - -
15/01:00am 22.3 SW 3 5 1007.6 - 0.4 - Partly cloudy 10 - - - -
15/12:30am 22.7 SW 4 6 1008.0 - 0.4 - Partly cloudy 10 - - - -
15/12:00am 22.4 WSW 4 5 1008.1 - 0.4 - Partly cloudy 10 - - - -
 
Date/Time
EST
Temp

°C
Wind Pressure Rain
since 9am
mm
Weather Cloud Vis
km
Sea
Height
m
Swell
Dir
 
Speed
knots
Gust
knots
hPa Trend Height
m
Period
s
Dir
14/11:30pm 22.9 SW 4 5 1008.3 - 0.4 - Partly cloudy 10 - - - -
14/11:00pm 23.3 SSW 4 6 1008.4 - 0.4 - - 10 - - - -
14/10:30pm 23.6 S 6 10 1008.3 - 0.4 - - 10 - - - -
14/10:00pm 23.7 S 6 8 1008.5 - 0.4 - - 10 - - - -
14/09:30pm 23.9 S 6 8 1008.6 - 0.4 - - 10 - - - -
14/09:00pm 24.2 S 6 9 1008.6 - 0.4 - - 10 - - - -
14/08:30pm 24.4 S 6 9 1008.5 - 0.4 - - 10 - - - -
14/08:00pm 24.7 S 6 11 1008.1 - 0.4 - - 10 - - - -
14/07:30pm 24.9 SSE 7 13 1007.9 - 0.4 - - 10 - - - -
14/07:00pm 25.1 SSE 7 11 1007.4 - 0.4 - - 10 - - - -
14/06:30pm 25.6 SE 9 14 1007.1 - 0.4 - - 10 - - - -
14/06:00pm 26.6 SE 8 11 1006.7 - 0.4 - - 10 - - - -
14/05:30pm 26.9 SSE 8 14 1006.5 - 0.4 - - 10 - - - -
14/05:00pm 27.6 SSE 10 16 1006.2 - 0.4 - - 10 - - - -
14/04:30pm 26.7 SE 10 16 1006.3 - 0.4 - Partly cloudy 10 - - - -
14/04:00pm 27.8 SSE 10 15 1006.2 - 0.4 - Partly cloudy 10 - - - -
14/03:30pm 26.8 SSE 7 12 1006.2 - 0.4 - Partly cloudy 10 - - - -
14/03:00pm 25.1 SE 12 20 1006.6 - 0.4 Recent precip. Cloudy 10 - - - -
14/02:30pm 26.4 SSE 7 12 1006.3 - 0.4 - Partly cloudy 10 - - - -
14/02:00pm 26.0 SSE 9 15 1006.2 - 0.0 - Partly cloudy 10 - - - -
14/01:30pm 27.7 S 12 19 1006.2 - 0.0 - Partly cloudy 10 - - - -
14/01:00pm 28.3 SSE 10 16 1006.3 - 0.0 - Partly cloudy 10 - - - -
14/12:30pm 28.1 S 11 17 1006.5 - 0.0 - Partly cloudy 10 - - - -
14/12:00pm 27.9 S 11 19 1006.8 - 0.0 - Cloudy 10 - - - -
14/11:30am 27.8 SSE 12 19 1006.8 - 0.0 - Partly cloudy 10 - - - -
14/11:00am 27.0 S 10 17 1007.1 - 0.0 - Partly cloudy 10 - - - -
14/10:30am 27.0 S 11 16 1007.3 - 0.0 - Cloudy 10 - - - -
14/10:00am 26.1 S 10 15 1007.4 - 0.0 - Partly cloudy 10 - - - -
14/09:30am 25.3 S 11 15 1007.6 - 0.0 - Partly cloudy 10 - - - -
14/09:00am 25.6 SSW 13 19 1007.5 - 22.0 - Partly cloudy 10 - - - -
14/08:30am 25.1 S 11 18 1007.4 - 22.0 - - 10 - - - -
14/08:00am 24.8 S 10 18 1007.2 - 22.0 - - 10 - - - -
14/07:30am 24.0 S 11 17 1007.2 - 22.0 - - 10 - - - -
14/07:00am 23.0 SSW 8 12 1007.0 - 22.0 - - 10 - - - -
14/06:30am 22.1 SSW 6 8 1006.9 - 22.0 - - 10 - - - -
14/06:00am 21.9 SSW 6 9 1006.6 - 22.0 - Cloudy 10 - - - -
14/05:30am 22.1 SSW 6 9 1006.2 - 22.0 - Partly cloudy 10 - - - -
14/05:00am 22.2 SSW 8 14 1006.0 - 22.0 - - 10 - - - -
14/04:30am 22.3 S 8 12 1005.6 - 22.0 - Partly cloudy 10 - - - -
14/04:00am 22.3 S 9 15 1005.8 - 22.0 - Partly cloudy 10 - - - -
14/03:30am 22.1 S 9 13 1006.0 - 22.0 - - 10 - - - -
14/03:00am 21.9 SSW 11 17 1006.1 - 22.0 - Cloudy 10 - - - -
14/02:30am 21.9 SSW 9 14 1006.4 - 22.0 - Partly cloudy 7 - - - -
14/02:00am 22.0 SSW 7 10 1006.3 - 22.0 - Partly cloudy 10 - - - -
14/01:30am 22.1 SSW 8 12 1006.8 - 22.0 - Partly cloudy 10 - - - -
14/01:00am 22.3 SSW 7 10 1007.2 - 22.0 - Partly cloudy 10 - - - -
14/12:30am 22.4 S 9 17 1007.5 - 22.0 - Partly cloudy 9 - - - -
14/12:00am 22.2 SSW 7 9 1007.6 - 22.0 - Cloudy 10 - - - -
 
Date/Time
EST
Temp

°C
Wind Pressure Rain
since 9am
mm
Weather Cloud Vis
km
Sea
Height
m
Swell
Dir
 
Speed
knots
Gust
knots
hPa Trend Height
m
Period
s
Dir
13/11:30pm 22.1 SSW 7 9 1007.9 - 22.0 - Partly cloudy 10 - - - -
13/11:00pm 22.0 SSW 7 8 1008.1 - 22.0 - Partly cloudy 10 - - - -
13/10:30pm 22.3 S 8 12 1008.3 - 22.0 - Partly cloudy 10 - - - -
13/10:00pm 21.9 S 6 13 1008.2 - 22.0 - - 10 - - - -
13/09:30pm 22.1 S 7 11 1008.4 - 22.0 - Partly cloudy 10 - - - -
13/09:00pm 22.2 S 6 11 1008.4 - 21.4 Recent precip. Cloudy 10 - - - -
13/08:30pm 22.0 S 7 11 1008.3 - 21.2 - Partly cloudy 10 - - - -
13/08:00pm 21.9 SSW 6 8 1008.2 - 21.2 - Partly cloudy 10 - - - -
13/07:30pm 22.1 SSW 6 8 1008.1 - 21.0 - Partly cloudy 10 - - - -
13/07:00pm 22.1 SSW 7 10 1007.9 - 20.8 - Partly cloudy 8 - - - -
13/06:30pm 22.1 S 6 9 1007.7 - 20.2 - Partly cloudy 10 - - - -
13/06:00pm 21.9 S 9 16 1007.9 - 19.2 Rain Cloudy 8 - - - -
13/05:54pm 21.9 S 9 15 1007.9 - 18.8 - Partly cloudy 10 - - - -
13/05:30pm 22.0 SSW 9 16 1007.7 - 18.6 - Partly cloudy 10 - - - -
13/05:15pm 21.9 S 8 14 1007.6 - 18.4 - Partly cloudy 10 - - - -
13/05:00pm 22.2 S 9 14 1007.6 - 18.0 - Partly cloudy 8 - - - -
13/04:50pm 22.0 S 10 15 1007.7 - 17.4 - Partly cloudy 5 - - - -
13/04:42pm 22.1 S 10 17 1007.6 - 16.6 - Partly cloudy 5 - - - -
13/04:40pm 22.1 S 10 17 1007.6 - 16.4 - Partly cloudy 6 - - - -
13/04:30pm 22.2 S 11 24 1007.6 - 15.4 - Partly cloudy 8 - - - -
13/04:00pm 21.8 S 11 17 1007.4 - 14.2 - Partly cloudy 7 - - - -
13/03:37pm 22.2 SSW 9 13 1007.4 - 11.8 - Partly cloudy 6 - - - -
13/03:30pm 22.2 SSW 9 13 1007.3 - 10.8 - Partly cloudy 6 - - - -
13/03:11pm 22.1 S 9 16 1007.7 - 7.6 - Partly cloudy 5 - - - -
13/03:00pm 22.4 S 9 13 1007.6 - 6.2 Rain Cloudy 7 - - - -
13/02:30pm 22.4 S 8 14 1007.5 - 3.4 - Partly cloudy 10 - - - -
13/02:00pm 22.2 SSE 10 16 1007.5 - 2.4 - Partly cloudy 7 - - - -
13/01:30pm 22.4 SSE 14 20 1007.5 - 0.4 - Partly cloudy 10 - - - -
13/01:00pm 24.9 SSE 11 19 1007.7 - 0.2 - Partly cloudy 10 - - - -
13/12:30pm 25.0 S 11 17 1007.7 - 0.2 - Partly cloudy 10 - - - -
13/12:00pm 24.0 S 10 15 1008.1 - 0.2 Rain Cloudy 10 - - - -
13/11:30am 24.3 SE 11 21 1008.3 - 0.0 - Partly cloudy 10 - - - -
13/11:00am 25.8 SSE 12 20 1008.8 - 0.0 - Partly cloudy 10 - - - -
13/10:30am 24.9 S 12 21 1008.4 - 0.0 - Partly cloudy 10 - - - -
13/10:00am 25.2 S 11 20 1008.6 - 0.0 - Partly cloudy 10 - - - -
13/09:30am 23.9 S 9 12 1008.9 - 0.0 - Partly cloudy 10 - - - -
13/09:00am 24.5 S 12 19 1009.0 - 1.0 - Cloudy 10 - - - -
13/08:30am 25.0 S 13 23 1008.9 - 1.0 - Partly cloudy 10 - - - -
13/08:00am 23.9 S 11 19 1009.0 - 1.0 - Partly cloudy 10 - - - -
13/07:30am 23.8 S 10 16 1008.8 - 1.0 - Partly cloudy 10 - - - -
13/07:00am 22.2 S 11 17 1008.8 - 1.0 - Partly cloudy 10 - - - -
13/06:30am 22.1 S 10 19 1008.5 - 1.0 - Partly cloudy 10 - - - -
13/06:00am 22.3 S 10 17 1008.2 - 1.0 Recent precip. Cloudy 10 - - - -
13/05:30am 21.9 S 7 11 1007.8 - 1.0 - Partly cloudy 9 - - - -
13/05:09am 21.9 S 9 13 1007.9 - 0.6 - Partly cloudy 7 - - - -
13/05:00am 21.9 S 9 14 1008.1 - 0.4 - Partly cloudy 6 - - - -
13/04:57am 22.2 S 9 14 1007.9 - 0.4 - Partly cloudy 5 - - - -
13/04:30am 22.6 SSW 7 11 1007.9 - 0.0 - Partly cloudy 10 - - - -
13/04:00am 22.5 SSW 8 11 1007.5 - 0.0 - Partly cloudy 10 - - - -
13/03:30am 22.7 SSW 8 13 1007.5 - 0.0 - Partly cloudy 10 - - - -
13/03:00am 23.5 S 9 16 1007.7 - 0.0 - Mostly cloudy 10 - - - -
13/02:30am 24.6 S 11 20 1007.9 - 0.0 - Partly cloudy 10 - - - -
13/02:00am 24.5 S 11 17 1007.6 - 0.0 - - 10 - - - -
13/01:30am 24.6 S 9 13 1008.3 - 0.0 - - 10 - - - -
13/01:00am 24.5 S 11 16 1008.5 - 0.0 - Partly cloudy 10 - - - -
13/12:30am 24.4 S 9 14 1009.2 - 0.0 - Partly cloudy 10 - - - -
13/12:00am 24.3 S 8 11 1009.7 - 0.0 - Cloudy 10 - - - -
 
Date/Time
EST
Temp

°C
Wind Pressure Rain
since 9am
mm
Weather Cloud Vis
km
Sea
Height
m
Swell
Dir
 
Speed
knots
Gust
knots
hPa Trend Height
m
Period
s
Dir
12/11:30pm 24.5 S 9 14 1009.9 - 0.0 - - 10 - - - -
12/11:00pm 24.6 S 9 12 1010.1 - 0.0 - Partly cloudy 10 - - - -
12/10:30pm 24.5 S 8 11 1010.7 - 0.0 - Partly cloudy 10 - - - -
12/10:00pm 24.5 S 8 11 1010.8 - 0.0 - Partly cloudy 10 - - - -
12/09:30pm 24.4 S 9 14 1010.8 - 0.0 - - 10 - - - -
12/09:00pm 24.6 S 10 15 1010.9 - 0.0 - Mostly clear 10 - - - -
12/08:30pm 24.6 S 8 16 1011.1 - 0.0 - - 10 - - - -
12/08:00pm 24.6 SSE 8 15 1011.2 - 0.0 - - 10 - - - -
12/07:30pm 24.8 SSE 9 15 1010.7 - 0.0 - - 10 - - - -
12/07:00pm 25.1 SSE 12 17 1010.4 - 0.0 - - 10 - - - -
12/06:30pm 25.5 SSE 12 22 1010.3 - 0.0 - - 10 - - - -
12/06:00pm 25.8 SSE 13 21 1010.1 - 0.0 - - 10 - - - -
12/05:30pm 26.5 SSE 13 25 1010.0 - 0.0 - Partly cloudy 10 - - - -
12/05:23pm 26.5 SSE 15 25 1009.9 - 0.0 - Partly cloudy 10 - - - -
12/05:00pm 26.4 SSE 12 20 1009.7 - 0.0 - - 10 - - - -
12/04:30pm 26.8 SSE 16 23 1009.5 - 0.0 - Partly cloudy 10 - - - -
12/04:07pm 27.5 SSE 15 26 1009.4 - 0.0 - - 10 - - - -
12/04:00pm 27.9 SSE 14 24 1009.4 - 0.0 - Partly cloudy 10 - - - -
12/03:30pm 28.3 SE 13 22 1009.3 - 0.0 - Partly cloudy 10 - - - -
12/03:00pm 27.7 SSE 15 27 1009.4 - 0.0 - Partly cloudy 10 - - - -
12/02:52pm 27.3 SSE 15 27 1009.4 - 0.0 - Partly cloudy 10 - - - -
12/02:30pm 28.5 SSE 13 21 1009.4 - 0.0 - Partly cloudy 10 - - - -
12/02:00pm 28.3 SSE 15 23 1009.6 - 0.0 - Partly cloudy 10 - - - -
12/01:30pm 28.3 SSE 12 21 1009.6 - 0.0 - - 10 - - - -
12/01:00pm 27.8 SSE 14 21 1009.7 - 0.0 - Partly cloudy 10 - - - -
12/12:34pm 27.8 SE 16 26 1010.0 - 0.0 - Partly cloudy 10 - - - -
12/12:30pm 27.9 SE 15 23 1010.0 - 0.0 - Partly cloudy 10 - - - -
12/12:00pm 28.6 SSE 14 21 1010.2 - 0.0 - Mostly clear 10 - - - -
12/11:30am 28.7 SSE 14 22 1010.3 - 0.0 - Partly cloudy 10 - - - -
12/11:00am 27.7 SSE 13 23 1010.5 - 0.0 - - 10 - - - -
12/10:30am 28.3 SE 12 21 1010.6 - 0.0 - - 10 - - - -
12/10:00am 28.3 SSE 12 18 1011.0 - 0.0 - - 10 - - - -
12/09:30am 27.8 SE 11 21 1011.1 - 0.0 - - 10 - - - -
12/09:00am 27.3 SE 12 21 1011.2 - 0.2 Rain Mostly clear 10 - - - -
12/08:30am 26.9 SE 13 20 1011.2 - 0.0 - Partly cloudy 10 - - - -
12/08:00am 26.1 SSE 9 21 1011.1 - 0.0 - Partly cloudy 10 - - - -
12/07:30am 24.4 SSW 9 14 1011.0 - 0.0 - Partly cloudy 10 - - - -
12/07:00am 23.1 SSW 8 10 1010.8 - 0.0 - - 10 - - - -
12/06:30am 21.7 SSW 7 9 1010.7 - 0.0 - Partly cloudy 10 - - - -
12/06:00am 21.1 SSW 8 12 1010.4 - 0.0 - Mostly clear 10 - - - -
12/05:30am 20.8 SSW 7 9 1010.2 - 0.0 - - 10 - - - -

Other Formats:

Comma delimited format used in spreadsheet applications
http://www.bom.gov.au/fwo/IDQ60701/IDQ60701.95565.axf

JavaScript Object Notation format (JSON) in row-major order
http://www.bom.gov.au/fwo/IDQ60701/IDQ60701.95565.json